Time;durP1;ratioP1;P1;durP2;ratioP2;P2;SDS_P1;SDS_P2;PMS_P1;PMS_P2;Temp;Humidity;BMP_temperature;BMP_pressure;BME280_temperature;BME280_humidity;BME280_pressure;Samples;Min_cycle;Max_cycle;Signal;HPM_P1;HPM_P2
2023/04/21 00:01:54;;;;;;;5.90;1.48;;;8.30;99.90;;;;;;5069925;28;20486;-81
2023/04/21 00:04:19;;;;;;;6.10;1.52;;;8.30;99.90;;;;;;5070848;28;20414;-81
2023/04/21 00:06:45;;;;;;;3.53;1.75;;;8.60;99.90;;;;;;5070776;28;20041;-80
2023/04/21 00:09:11;;;;;;;1.92;1.42;;;8.20;99.90;;;;;;5070167;28;20052;-81
2023/04/21 00:11:37;;;;;;;2.50;1.38;;;8.30;99.90;;;;;;5070258;28;20050;-82
2023/04/21 00:14:02;;;;;;;1.08;0.98;;;8.20;99.90;;;;;;5055301;28;20044;-82
2023/04/21 00:16:28;;;;;;;3.53;1.80;;;8.10;99.90;;;;;;5049433;28;20048;-80
2023/04/21 00:18:54;;;;;;;0.55;0.55;;;8.10;99.90;;;;;;5058293;28;20053;-82
2023/04/21 00:21:19;;;;;;;0.95;0.80;;;8.10;99.90;;;;;;5071712;28;20155;-81
2023/04/21 00:23:46;;;;;;;0.98;0.88;;;8.00;99.90;;;;;;5070814;28;20047;-81
2023/04/21 00:26:12;;;;;;;1.30;1.15;;;7.90;99.90;;;;;;5070943;28;20049;-81
2023/04/21 00:28:37;;;;;;;1.25;1.02;;;7.80;99.90;;;;;;5072888;28;20067;-81
2023/04/21 00:31:03;;;;;;;3.78;1.45;;;7.80;99.90;;;;;;5072454;28;20112;-81
2023/04/21 00:33:28;;;;;;;1.20;1.05;;;7.80;99.90;;;;;;5084806;28;20041;-82
2023/04/21 00:35:55;;;;;;;1.95;1.27;;;7.70;99.90;;;;;;5080287;28;20036;-80
2023/04/21 00:38:21;;;;;;;6.47;1.20;;;7.80;99.90;;;;;;5068996;28;20183;-81
2023/04/21 00:40:47;;;;;;;4.45;1.27;;;7.80;99.90;;;;;;5054341;28;20559;-80
2023/04/21 00:43:12;;;;;;;1.55;1.33;;;7.70;99.90;;;;;;5053631;28;20069;-81
2023/04/21 00:45:38;;;;;;;1.92;1.52;;;7.70;99.90;;;;;;5070113;28;20601;-80
2023/04/21 00:48:04;;;;;;;2.45;2.25;;;7.80;99.90;;;;;;5072658;28;20048;-82
2023/04/21 00:50:31;;;;;;;1.90;1.48;;;7.70;99.90;;;;;;5073301;28;20044;-80
2023/04/21 00:52:59;;;;;;;0.73;0.55;;;7.70;99.90;;;;;;5072141;28;20498;-81
2023/04/21 00:55:25;;;;;;;2.10;1.60;;;7.70;99.90;;;;;;5070299;28;20051;-81
2023/04/21 00:57:52;;;;;;;0.82;0.82;;;7.60;99.90;;;;;;5071428;28;20124;-81
2023/04/21 01:00:19;;;;;;;1.17;1.08;;;7.60;99.90;;;;;;5072490;28;20052;-81
2023/04/21 01:02:45;;;;;;;0.80;0.77;;;7.60;99.90;;;;;;5071657;28;20053;-81
2023/04/21 01:05:10;;;;;;;1.52;0.52;;;7.60;99.90;;;;;;5054742;28;20065;-81
2023/04/21 01:07:36;;;;;;;0.50;0.50;;;7.60;99.90;;;;;;5059970;28;20486;-81
2023/04/21 01:10:03;;;;;;;2.17;2.05;;;7.60;99.90;;;;;;5068801;28;20048;-80
2023/04/21 01:12:29;;;;;;;0.45;0.43;;;7.50;99.90;;;;;;5072052;28;20044;-81
2023/04/21 01:14:55;;;;;;;0.52;0.52;;;7.50;99.90;;;;;;5072193;28;20047;-81
2023/04/21 01:17:21;;;;;;;1.95;1.02;;;7.50;99.90;;;;;;5057540;28;20109;-80
2023/04/21 01:19:47;;;;;;;3.63;1.27;;;7.40;99.90;;;;;;5051545;28;20100;-81
2023/04/21 01:22:14;;;;;;;3.28;1.42;;;7.40;99.90;;;;;;5052379;28;20048;-80
2023/04/21 01:24:41;;;;;;;0.85;0.57;;;7.40;99.90;;;;;;5051526;28;20478;-81
2023/04/21 01:27:15;;;;;;;4.95;0.50;;;7.40;99.90;;;;;;5033884;28;20210;-80
2023/04/21 01:29:42;;;;;;;1.48;1.17;;;8.40;99.90;;;;;;5049529;28;20048;-81
2023/04/21 01:32:14;;;;;;;2.28;1.00;;;7.30;99.90;;;;;;5069100;28;20041;-81
2023/04/21 01:34:41;;;;;;;2.72;1.58;;;7.40;99.90;;;;;;5070861;28;20082;-81
2023/04/21 01:37:08;;;;;;;7.97;2.63;;;7.40;99.90;;;;;;5071411;28;20040;-80
2023/04/21 01:39:40;;;;;;;1.45;0.95;;;7.40;99.90;;;;;;5066881;28;20048;-81
2023/04/21 01:42:06;;;;;;;1.35;1.23;;;7.40;99.90;;;;;;5068431;28;20048;-81
2023/04/21 01:44:32;;;;;;;1.23;1.13;;;7.30;99.90;;;;;;5054145;28;20047;-81
2023/04/21 01:46:58;;;;;;;0.45;0.45;;;7.30;99.90;;;;;;5060935;28;20045;-80
2023/04/21 01:49:23;;;;;;;1.33;1.23;;;7.30;99.90;;;;;;5048598;28;20052;-81
2023/04/21 01:51:49;;;;;;;1.42;1.33;;;7.30;99.90;;;;;;5050966;28;20485;-81
2023/04/21 01:54:14;;;;;;;0.93;0.93;;;7.30;99.90;;;;;;5050094;28;20072;-81
2023/04/21 01:56:40;;;;;;;1.38;0.82;;;7.30;99.90;;;;;;5051072;28;20048;-80
2023/04/21 01:59:06;;;;;;;3.15;2.83;;;7.30;99.90;;;;;;5050951;28;20048;-80
2023/04/21 02:01:32;;;;;;;1.75;0.95;;;7.20;99.90;;;;;;5051119;28;20130;-82
2023/04/21 02:03:57;;;;;;;1.08;0.95;;;7.10;99.90;;;;;;5051683;28;20128;-82
2023/04/21 02:06:23;;;;;;;2.97;2.17;;;7.10;99.90;;;;;;5052321;28;20128;-80
2023/04/21 02:08:49;;;;;;;0.90;0.88;;;7.10;99.90;;;;;;5052076;28;20142;-81
2023/04/21 02:11:14;;;;;;;1.70;1.40;;;7.10;99.90;;;;;;5051946;28;20041;-81
2023/04/21 02:13:40;;;;;;;0.65;0.57;;;7.10;99.90;;;;;;5052102;28;20053;-82
2023/04/21 02:16:06;;;;;;;1.60;0.93;;;7.20;99.90;;;;;;5054193;28;20075;-81
2023/04/21 02:18:34;;;;;;;2.88;1.55;;;7.20;99.90;;;;;;5071482;28;20048;-81
2023/04/21 02:21:00;;;;;;;1.13;0.93;;;7.20;99.90;;;;;;5071294;28;20513;-80
2023/04/21 02:23:25;;;;;;;0.40;0.40;;;7.30;99.90;;;;;;5070547;28;20066;-80
2023/04/21 02:25:51;;;;;;;2.25;2.05;;;7.20;99.90;;;;;;5071217;28;20075;-82
2023/04/21 02:28:16;;;;;;;1.65;1.45;;;7.20;99.90;;;;;;5074570;28;20099;-81
2023/04/21 02:30:42;;;;;;;1.23;1.13;;;7.10;99.90;;;;;;5065595;28;20125;-80
2023/04/21 02:33:08;;;;;;;11.60;1.55;;;7.10;99.90;;;;;;5080615;28;20100;-81
2023/04/21 02:35:33;;;;;;;0.50;0.50;;;7.10;99.90;;;;;;5080687;28;20048;-80
2023/04/21 02:38:05;;;;;;;3.40;1.08;;;7.10;99.90;;;;;;5063749;28;20055;-80
2023/04/21 02:40:30;;;;;;;1.10;1.00;;;7.20;99.90;;;;;;5063744;28;20047;-80
2023/04/21 02:42:56;;;;;;;0.13;0.13;;;7.20;99.90;;;;;;5073515;28;20040;-81
2023/04/21 02:45:22;;;;;;;1.67;1.42;;;7.20;99.90;;;;;;5062214;28;20041;-80
2023/04/21 02:47:47;;;;;;;3.72;2.17;;;7.60;99.90;;;;;;5076614;28;20045;-81
2023/04/21 02:50:13;;;;;;;1.27;0.95;;;7.00;99.90;;;;;;5076237;28;20060;-79
2023/04/21 02:52:39;;;;;;;2.08;1.40;;;7.10;99.90;;;;;;5059436;28;20036;-82
2023/04/21 02:55:05;;;;;;;1.50;1.15;;;7.00;99.90;;;;;;5056563;28;20045;-80
2023/04/21 02:57:33;;;;;;;4.22;2.35;;;6.90;99.90;;;;;;5058141;28;20074;-81
2023/04/21 02:59:59;;;;;;;3.15;1.00;;;7.00;99.90;;;;;;5057134;28;20052;-80
2023/04/21 03:02:25;;;;;;;0.90;0.90;;;6.90;99.90;;;;;;5076536;28;20044;-81
2023/04/21 03:04:53;;;;;;;3.15;1.98;;;6.80;99.90;;;;;;5077100;28;20044;-81
2023/04/21 03:07:19;;;;;;;1.27;1.17;;;6.80;99.90;;;;;;5074460;28;20037;-81
2023/04/21 03:09:48;;;;;;;1.33;0.88;;;6.80;99.90;;;;;;5078944;28;20075;-81
2023/04/21 03:12:13;;;;;;;3.70;1.23;;;6.70;99.90;;;;;;5059284;28;20045;-81
2023/04/21 03:14:39;;;;;;;0.77;0.77;;;6.60;99.90;;;;;;5058538;28;20051;-81
2023/04/21 03:17:05;;;;;;;2.55;2.08;;;6.60;99.90;;;;;;5077979;28;20024;-81
2023/04/21 03:19:31;;;;;;;28.77;1.92;;;6.60;99.90;;;;;;5086117;28;20045;-81
2023/04/21 03:21:57;;;;;;;0.50;0.50;;;6.70;99.90;;;;;;5054001;28;20053;-81
2023/04/21 03:24:23;;;;;;;2.40;2.08;;;6.70;99.90;;;;;;5053929;28;20182;-82
2023/04/21 03:26:48;;;;;;;1.98;1.73;;;6.60;99.90;;;;;;5053410;28;20045;-82
2023/04/21 03:29:14;;;;;;;0.57;0.57;;;6.60;99.90;;;;;;5077776;28;20016;-82
2023/04/21 03:31:40;;;;;;;1.80;1.70;;;6.70;99.90;;;;;;5090921;28;20044;-81
2023/04/21 03:34:05;;;;;;;1.63;1.48;;;6.70;99.90;;;;;;5077483;28;20063;-80
2023/04/21 03:36:34;;;;;;;1.00;0.93;;;6.70;99.90;;;;;;5074066;28;20044;-81
2023/04/21 03:39:00;;;;;;;2.85;2.00;;;6.70;99.90;;;;;;5074350;28;20052;-81
2023/04/21 03:41:25;;;;;;;1.13;0.82;;;6.80;99.90;;;;;;5073159;28;20060;-80
2023/04/21 03:43:51;;;;;;;0.80;0.75;;;6.90;99.90;;;;;;5063509;28;20109;-80
2023/04/21 03:46:20;;;;;;;1.08;0.98;;;6.90;99.90;;;;;;5056294;28;20049;-80
2023/04/21 03:48:47;;;;;;;0.77;0.77;;;6.90;99.90;;;;;;5056706;28;20052;-81
2023/04/21 03:51:13;;;;;;;2.95;1.75;;;6.90;99.90;;;;;;5062346;28;20067;-81
2023/04/21 03:53:39;;;;;;;1.15;1.05;;;6.90;99.90;;;;;;5075433;28;20040;-81
2023/04/21 03:56:05;;;;;;;4.82;2.50;;;7.00;99.90;;;;;;5076465;28;20132;-81
2023/04/21 03:58:30;;;;;;;3.45;2.03;;;7.00;99.90;;;;;;5060693;28;20051;-81
2023/04/21 04:00:56;;;;;;;2.15;1.60;;;7.10;99.90;;;;;;5059588;28;20036;-80
2023/04/21 04:03:22;;;;;;;1.33;1.20;;;7.10;99.90;;;;;;5071239;28;20080;-80
2023/04/21 04:05:47;;;;;;;5.10;2.30;;;7.10;99.90;;;;;;5054461;28;20049;-81
2023/04/21 04:08:13;;;;;;;4.40;2.28;;;7.10;99.90;;;;;;5066712;28;20040;-81
2023/04/21 04:10:39;;;;;;;1.90;1.77;;;7.10;99.90;;;;;;5073767;28;20040;-80
2023/04/21 04:13:04;;;;;;;1.73;0.60;;;7.10;99.90;;;;;;5074763;28;20131;-81
2023/04/21 04:15:30;;;;;;;1.35;0.98;;;7.20;99.90;;;;;;5075164;28;20042;-82
2023/04/21 04:17:56;;;;;;;1.30;1.20;;;7.00;99.90;;;;;;5075253;28;20052;-81
2023/04/21 04:20:21;;;;;;;1.42;1.20;;;7.00;99.90;;;;;;5075750;28;20067;-82
2023/04/21 04:22:47;;;;;;;0.95;0.88;;;7.00;99.90;;;;;;5059508;28;20400;-81
2023/04/21 04:25:15;;;;;;;1.58;0.93;;;7.10;99.90;;;;;;5054708;28;20146;-81
2023/04/21 04:27:43;;;;;;;1.27;1.08;;;7.10;99.90;;;;;;5061269;28;20079;-82
2023/04/21 04:30:10;;;;;;;0.80;0.80;;;7.10;99.90;;;;;;5074717;28;20045;-81
2023/04/21 04:32:38;;;;;;;2.30;2.10;;;7.10;99.90;;;;;;5054512;28;20103;-81
2023/04/21 04:35:05;;;;;;;0.95;0.93;;;7.00;99.90;;;;;;5053291;28;20047;-81
2023/04/21 04:37:33;;;;;;;3.15;2.15;;;7.10;99.90;;;;;;5054558;28;20080;-81
2023/04/21 04:39:59;;;;;;;2.65;1.65;;;7.20;99.90;;;;;;5072967;28;20110;-81
2023/04/21 04:42:25;;;;;;;1.10;1.05;;;7.20;99.90;;;;;;5072918;28;20478;-81
2023/04/21 04:44:54;;;;;;;0.90;0.85;;;7.20;99.90;;;;;;5072328;28;20486;-81
2023/04/21 04:47:20;;;;;;;1.83;1.20;;;7.20;99.90;;;;;;5072185;28;20146;-81
2023/04/21 04:49:46;;;;;;;0.28;0.28;;;7.20;99.90;;;;;;5072800;28;20230;-82
2023/04/21 04:52:12;;;;;;;0.88;0.55;;;7.80;99.90;;;;;;5056890;28;20049;-81
2023/04/21 04:54:37;;;;;;;0.57;0.57;;;7.30;99.90;;;;;;5052747;28;20052;-82
2023/04/21 04:57:03;;;;;;;1.48;1.38;;;7.40;99.90;;;;;;5051306;28;20045;-80
2023/04/21 04:59:29;;;;;;;1.23;1.13;;;7.40;99.90;;;;;;5067852;28;20047;-81
2023/04/21 05:01:56;;;;;;;3.15;1.77;;;7.40;99.90;;;;;;5072223;28;20488;-80
2023/04/21 05:04:22;;;;;;;0.43;0.43;;;7.30;99.90;;;;;;5072722;28;20052;-80
2023/04/21 05:06:48;;;;;;;1.50;1.40;;;7.40;99.90;;;;;;5071709;28;20123;-80
2023/04/21 05:09:15;;;;;;;1.98;1.88;;;7.40;99.90;;;;;;5071930;28;20036;-81
2023/04/21 05:11:40;;;;;;;0.77;0.73;;;7.50;99.90;;;;;;5061984;28;20436;-81
2023/04/21 05:14:06;;;;;;;0.90;0.82;;;7.50;99.90;;;;;;5051297;28;20041;-81
2023/04/21 05:16:33;;;;;;;2.50;2.15;;;7.50;98.50;;;;;;5050140;28;20354;-81
2023/04/21 05:19:04;;;;;;;3.95;1.33;;;7.50;81.20;;;;;;5051164;28;20179;-81
2023/04/21 05:21:30;;;;;;;0.77;0.73;;;7.70;1.00;;;;;;5049507;28;20061;-79
2023/04/21 05:23:59;;;;;;;1.48;1.38;;;7.70;1.00;;;;;;5050005;28;20422;-81
2023/04/21 05:26:26;;;;;;;1.08;1.00;;;7.70;1.00;;;;;;5049852;28;20052;-81
2023/04/21 05:28:56;;;;;;;0.30;0.30;;;7.70;1.00;;;;;;5049531;28;20045;-80
2023/04/21 05:31:22;;;;;;;1.25;0.98;;;7.80;1.00;;;;;;5056395;28;20071;-81
2023/04/21 05:33:49;;;;;;;0.68;0.68;;;7.80;1.00;;;;;;5058803;28;20091;-81
2023/04/21 05:36:15;;;;;;;1.15;0.73;;;7.80;1.00;;;;;;5051863;28;20048;-81
2023/04/21 05:38:40;;;;;;;5.85;1.63;;;7.90;99.90;;;;;;5046168;28;20063;-81
2023/04/21 05:41:06;;;;;;;5.72;3.10;;;7.90;99.90;;;;;;5048787;28;20576;-81
2023/04/21 05:43:33;;;;;;;1.48;0.80;;;8.00;99.90;;;;;;5047998;28;20065;-82
2023/04/21 05:46:09;;;;;;;0.35;0.35;;;8.00;1.00;;;;;;5045560;28;20055;-81
2023/04/21 05:48:35;;;;;;;;;;;8.10;24.60;;;;;;5047592;28;20055;-81
2023/04/21 05:51:17;;;;;;;0.13;0.13;;;8.70;1.00;;;;;;5045839;28;19925;-82
2023/04/21 05:53:44;;;;;;;3.70;2.33;;;8.20;99.90;;;;;;5030307;28;20055;-81
2023/04/21 05:56:10;;;;;;;0.93;0.85;;;8.30;99.90;;;;;;5047598;28;20120;-81
2023/04/21 05:58:36;;;;;;;0.17;0.17;;;8.30;1.00;;;;;;5047286;28;20045;-81
2023/04/21 06:01:02;;;;;;;0.88;0.73;;;8.70;99.90;;;;;;5046865;28;20061;-81
2023/04/21 06:03:30;;;;;;;1.80;1.05;;;8.40;99.90;;;;;;5046799;28;20120;-82
2023/04/21 06:05:59;;;;;;;1.58;1.38;;;9.40;99.90;;;;;;5049207;28;20577;-81
2023/04/21 06:08:25;;;;;;;1.23;0.98;;;9.00;47.50;;;;;;5054099;28;20406;-82
2023/04/21 06:10:51;;;;;;;4.03;2.60;;;8.70;99.90;;;;;;5043864;28;20052;-81
2023/04/21 06:13:17;;;;;;;1.02;0.65;;;8.90;70.00;;;;;;5049054;28;20595;-81
2023/04/21 06:15:43;;;;;;;0.43;0.38;;;9.50;99.90;;;;;;5055325;28;20049;-81
2023/04/21 06:18:09;;;;;;;0.20;0.20;;;10.30;99.90;;;;;;5060818;28;20029;-81
2023/04/21 06:20:34;;;;;;;0.68;0.60;;;10.60;1.00;;;;;;5068044;28;20067;-81
2023/04/21 06:23:00;;;;;;;1.52;1.42;;;10.90;99.90;;;;;;5065212;28;20079;-81
2023/04/21 06:25:26;;;;;;;0.45;0.45;;;11.50;99.90;;;;;;5052965;28;20037;-81
2023/04/21 06:27:52;;;;;;;1.20;0.85;;;11.80;99.90;;;;;;5067004;28;20068;-81
2023/04/21 06:30:17;;;;;;;0.55;0.55;;;12.00;1.00;;;;;;5067928;28;20132;-81
2023/04/21 06:32:47;;;;;;;0.47;0.47;;;12.50;1.00;;;;;;5068900;28;20041;-81
2023/04/21 06:35:14;;;;;;;0.40;0.35;;;12.60;1.00;;;;;;5069401;28;20025;-81
2023/04/21 06:37:40;;;;;;;2.80;1.02;;;12.40;1.00;;;;;;5069670;28;20037;-81
2023/04/21 06:40:07;;;;;;;1.60;1.45;;;12.20;1.00;;;;;;5070376;28;20043;-80
2023/04/21 06:42:33;;;;;;;0.50;0.47;;;12.60;1.00;;;;;;5068060;28;20049;-81
2023/04/21 06:44:59;;;;;;;0.17;0.17;;;12.80;1.00;;;;;;5054131;28;20041;-81
2023/04/21 06:47:25;;;;;;;4.18;2.17;;;12.70;1.00;;;;;;5051094;28;20142;-81
2023/04/21 06:49:50;;;;;;;2.85;0.93;;;12.80;99.90;;;;;;5051790;28;20049;-81
2023/04/21 06:52:19;;;;;;;1.92;1.55;;;13.20;1.00;;;;;;5050113;28;20139;-81
2023/04/21 06:54:44;;;;;;;0.45;0.45;;;13.10;99.90;;;;;;5049350;28;20079;-81
2023/04/21 06:57:14;;;;;;;0.20;0.20;;;13.20;99.90;;;;;;5050923;28;20057;-81
2023/04/21 06:59:40;;;;;;;2.15;1.65;;;13.50;99.90;;;;;;5053436;28;20044;-82
2023/04/21 07:02:06;;;;;;;5.72;2.03;;;13.70;99.90;;;;;;5053164;28;20049;-82
2023/04/21 07:04:32;;;;;;;0.52;0.52;;;13.40;99.90;;;;;;5053055;28;20119;-82
2023/04/21 07:06:57;;;;;;;1.73;0.60;;;13.30;99.90;;;;;;5053071;28;20081;-82
2023/04/21 07:09:23;;;;;;;0.80;0.63;;;13.10;99.90;;;;;;5052977;28;20045;-82
2023/04/21 07:11:49;;;;;;;0.57;0.57;;;13.40;99.90;;;;;;5053175;28;20483;-80
2023/04/21 07:14:14;;;;;;;0.50;0.50;;;13.50;99.90;;;;;;5053879;28;20036;-81
2023/04/21 07:16:40;;;;;;;0.43;0.43;;;13.40;99.90;;;;;;5053348;28;20059;-81
2023/04/21 07:19:06;;;;;;;2.90;1.20;;;13.20;99.90;;;;;;5053202;28;20072;-81
2023/04/21 07:21:35;;;;;;;0.93;0.88;;;13.50;99.90;;;;;;5052872;28;20063;-81
2023/04/21 07:24:01;;;;;;;2.10;1.70;;;13.60;99.90;;;;;;5054303;28;20104;-81
2023/04/21 07:26:28;;;;;;;0.85;0.75;;;14.10;99.90;;;;;;5053575;28;20096;-82
2023/04/21 07:28:57;;;;;;;2.58;1.05;;;14.10;99.90;;;;;;5053566;28;20084;-81
2023/04/21 07:31:24;;;;;;;1.45;1.25;;;13.90;99.90;;;;;;5053237;28;20060;-81
2023/04/21 07:33:49;;;;;;;0.90;0.63;;;14.00;99.90;;;;;;5055020;28;20445;-81
2023/04/21 07:36:16;;;;;;;2.53;0.77;;;15.10;99.90;;;;;;5053855;28;20045;-81
2023/04/21 07:38:42;;;;;;;2.65;0.60;;;14.50;99.90;;;;;;5050075;28;20064;-81
2023/04/21 07:41:12;;;;;;;1.77;0.77;;;14.00;99.90;;;;;;5053227;28;20045;-80
2023/04/21 07:43:38;;;;;;;1.42;1.30;;;14.40;99.90;;;;;;5056236;28;20487;-80
2023/04/21 07:46:05;;;;;;;0.57;0.57;;;15.00;99.90;;;;;;5054962;28;20040;-80
2023/04/21 07:48:30;;;;;;;1.30;1.20;;;15.00;99.90;;;;;;5056945;28;20051;-80
2023/04/21 07:50:59;;;;;;;2.13;0.95;;;14.90;99.90;;;;;;5056495;28;20525;-81
2023/04/21 07:53:26;;;;;;;2.70;0.98;;;15.50;99.90;;;;;;5056290;28;20104;-83
2023/04/21 07:55:51;;;;;;;0.82;0.80;;;15.50;99.90;;;;;;5055846;28;20053;-82
2023/04/21 07:58:17;;;;;;;2.00;1.40;;;15.60;99.90;;;;;;5057142;28;20048;-81
2023/04/21 08:00:43;;;;;;;1.08;0.98;;;15.70;99.90;;;;;;5055875;28;20052;-81
2023/04/21 08:03:08;;;;;;;0.85;0.65;;;15.90;99.90;;;;;;5054398;28;20060;-81
2023/04/21 08:05:34;;;;;;;0.17;0.17;;;15.60;99.90;;;;;;5054662;28;20060;-81
2023/04/21 08:08:00;;;;;;;0.65;0.45;;;15.60;99.90;;;;;;5052597;28;20044;-81
2023/04/21 08:10:26;;;;;;;0.45;0.45;;;15.70;99.90;;;;;;5054460;28;20052;-81
2023/04/21 08:12:51;;;;;;;2.20;1.90;;;16.00;99.90;;;;;;5053325;28;20040;-81
2023/04/21 08:15:20;;;;;;;2.13;1.30;;;15.70;99.90;;;;;;5054894;28;20048;-81
2023/04/21 08:17:49;;;;;;;3.30;1.30;;;15.50;99.90;;;;;;5054687;28;20048;-81
2023/04/21 08:20:14;;;;;;;0.55;0.55;;;15.30;99.90;;;;;;5054416;28;20099;-81
2023/04/21 08:22:40;;;;;;;0.47;0.47;;;15.90;99.90;;;;;;5052730;28;20057;-81
2023/04/21 08:25:06;;;;;;;6.38;1.25;;;16.00;99.90;;;;;;5053867;28;20045;-81
2023/04/21 08:27:32;;;;;;;3.00;1.67;;;16.10;99.90;;;;;;5053788;28;20049;-80
2023/04/21 08:29:59;;;;;;;2.28;1.52;;;15.90;99.90;;;;;;5054041;28;20064;-81
2023/04/21 08:32:25;;;;;;;0.77;0.77;;;16.70;99.90;;;;;;5051968;28;20183;-81
2023/04/21 08:34:52;;;;;;;2.38;0.98;;;17.00;99.90;;;;;;5053964;28;20048;-81
2023/04/21 08:37:19;;;;;;;1.15;1.00;;;16.70;99.90;;;;;;5053188;28;20506;-82
2023/04/21 08:39:52;;;;;;;1.67;1.20;;;16.10;99.90;;;;;;5053739;28;20053;-81
2023/04/21 08:42:21;;;;;;;0.90;0.77;;;16.40;99.90;;;;;;5053931;28;20148;-81
2023/04/21 08:44:46;;;;;;;11.20;1.58;;;17.00;99.90;;;;;;5053661;28;20044;-81
2023/04/21 08:47:13;;;;;;;1.02;0.85;;;16.80;99.90;;;;;;5053623;28;20055;-82
2023/04/21 08:49:41;;;;;;;0.77;0.55;;;16.70;99.90;;;;;;5053810;28;20051;-81
2023/04/21 08:52:07;;;;;;;1.30;1.08;;;16.80;99.90;;;;;;5051138;28;20056;-81
2023/04/21 08:54:37;;;;;;;0.20;0.20;;;16.60;99.90;;;;;;5051864;28;20117;-81
2023/04/21 08:57:03;;;;;;;1.05;0.95;;;16.60;99.90;;;;;;5052973;28;20452;-82
2023/04/21 08:59:29;;;;;;;3.53;1.52;;;16.80;99.90;;;;;;5053248;28;20068;-81
2023/04/21 09:02:15;;;;;;;1.17;0.98;;;17.00;99.90;;;;;;5049948;28;20044;-81
2023/04/21 09:04:51;;;;;;;1.02;0.80;;;17.00;99.90;;;;;;5049914;28;20490;-82
2023/04/21 09:07:34;;;;;;;1.52;0.75;;;17.20;99.90;;;;;;5047592;28;20049;-81
2023/04/21 09:10:04;;;;;;;1.55;1.38;;;16.90;99.90;;;;;;5049683;28;20052;-81
2023/04/21 09:12:30;;;;;;;2.88;1.27;;;17.10;99.90;;;;;;5067271;28;20549;-82
2023/04/21 09:14:57;;;;;;;0.52;0.45;;;17.20;99.90;;;;;;5070207;28;20055;-80
2023/04/21 09:17:32;;;;;;;0.40;0.40;;;17.50;99.90;;;;;;5069689;28;20052;-82
2023/04/21 09:20:21;;;;;;;1.17;0.93;;;17.80;99.90;;;;;;5066855;28;20064;-82
2023/04/21 09:22:50;;;;;;;0.68;0.65;;;17.70;99.90;;;;;;5068051;28;20072;-81
2023/04/21 09:25:21;;;;;;;12.40;3.55;;;17.40;99.90;;;;;;5068930;28;20773;-82
2023/04/21 09:27:47;;;;;;;0.47;0.47;;;17.30;99.90;;;;;;5068457;28;20096;-82
2023/04/21 09:30:17;;;;;;;0.70;0.43;;;18.00;99.90;;;;;;5066187;28;20048;-82
2023/04/21 09:32:42;;;;;;;2.38;1.80;;;18.10;99.90;;;;;;5066122;28;20071;-82
2023/04/21 09:35:10;;;;;;;10.75;1.98;;;18.80;99.90;;;;;;5067125;28;20044;-82
2023/04/21 09:37:37;;;;;;;1.20;0.82;;;18.30;99.90;;;;;;5066465;28;20054;-82
2023/04/21 09:40:03;;;;;;;1.17;0.82;;;18.70;99.90;;;;;;5066024;28;20048;-82
2023/04/21 09:42:34;;;;;;;0.57;0.57;;;18.90;99.90;;;;;;5065972;28;20044;-82
2023/04/21 09:45:00;;;;;;;2.80;1.70;;;18.80;99.90;;;;;;5064068;28;20045;-82
2023/04/21 09:47:28;;;;;;;1.20;1.10;;;18.20;99.90;;;;;;5074286;28;20028;-83
2023/04/21 09:49:56;;;;;;;0.52;0.52;;;18.60;99.90;;;;;;5088440;28;20075;-81
2023/04/21 09:52:24;;;;;;;2.25;1.35;;;18.50;99.90;;;;;;5090094;28;20059;-83
2023/04/21 09:54:56;;;;;;;4.43;0.90;;;18.10;99.90;;;;;;5071408;28;20029;-81
2023/04/21 09:57:25;;;;;;;1.52;1.08;;;17.60;99.90;;;;;;5073340;28;20041;-82
2023/04/21 09:59:58;;;;;;;1.65;1.30;;;17.20;99.90;;;;;;5089098;28;20036;-81
2023/04/21 10:02:27;;;;;;;1.13;0.93;;;17.40;99.90;;;;;;5088894;28;20024;-82
2023/04/21 10:04:53;;;;;;;1.15;1.05;;;17.10;99.90;;;;;;5057298;28;20386;-82
2023/04/21 10:07:21;;;;;;;1.13;0.88;;;17.50;99.90;;;;;;5069892;28;20040;-82
2023/04/21 10:09:53;;;;;;;0.43;0.40;;;17.70;99.90;;;;;;5071207;28;20049;-82
2023/04/21 10:12:19;;;;;;;1.63;1.02;;;17.80;99.90;;;;;;5074948;28;20127;-82
2023/04/21 10:14:49;;;;;;;3.17;1.20;;;17.40;99.90;;;;;;5071832;28;20045;-82
2023/04/21 10:17:14;;;;;;;0.52;0.47;;;17.50;99.90;;;;;;5071132;28;20072;-81
2023/04/21 10:19:52;;;;;;;1.65;0.55;;;17.80;99.90;;;;;;5069955;28;20075;-81
2023/04/21 10:22:28;;;;;;;0.57;0.57;;;17.70;99.90;;;;;;5070935;28;20056;-82
2023/04/21 10:24:56;;;;;;;2.10;1.52;;;17.90;99.90;;;;;;5070527;28;20076;-82
2023/04/21 10:27:38;;;;;;;1.13;1.02;;;18.00;99.90;;;;;;5069847;28;20525;-82
2023/04/21 10:30:21;;;;;;;1.38;1.20;;;18.30;99.90;;;;;;5068868;28;20072;-82
2023/04/21 10:32:47;;;;;;;1.02;0.73;;;18.50;99.90;;;;;;5074712;28;20041;-82
2023/04/21 10:35:21;;;;;;;1.05;0.75;;;18.40;99.90;;;;;;5075149;28;20136;-82
2023/04/21 10:37:48;;;;;;;0.65;0.65;;;19.00;99.90;;;;;;5074155;28;20048;-82
2023/04/21 10:40:29;;;;;;;1.63;1.15;;;18.70;99.90;;;;;;5074272;28;20059;-81
2023/04/21 10:42:55;;;;;;;1.27;1.17;;;19.10;99.90;;;;;;5057431;28;20055;-82
2023/04/21 10:45:24;;;;;;;4.45;1.35;;;18.80;99.90;;;;;;5075407;28;20056;-82
2023/04/21 10:47:52;;;;;;;3.75;2.30;;;19.20;99.90;;;;;;5072662;28;20044;-83
2023/04/21 10:50:24;;;;;;;0.70;0.65;;;19.10;99.90;;;;;;5054071;28;20597;-83
2023/04/21 10:52:56;;;;;;;1.17;0.82;;;19.10;99.90;;;;;;5065913;28;20061;-83
2023/04/21 10:55:25;;;;;;;1.95;1.17;;;19.10;99.90;;;;;;5076371;28;20056;-82
2023/04/21 10:57:52;;;;;;;0.90;0.75;;;19.40;99.90;;;;;;5079900;28;20084;-82
2023/04/21 11:00:21;;;;;;;1.45;1.17;;;19.40;99.90;;;;;;5081648;28;20048;-82
2023/04/21 11:02:58;;;;;;;0.47;0.40;;;19.40;99.90;;;;;;5076929;28;20062;-82
2023/04/21 11:05:29;;;;;;;1.10;0.82;;;19.90;99.90;;;;;;5076530;28;20076;-83
2023/04/21 11:08:13;;;;;;;1.90;0.77;;;19.30;99.90;;;;;;5088500;28;20032;-81
2023/04/21 11:10:55;;;;;;;1.45;1.13;;;19.20;99.90;;;;;;5088354;28;20040;-82
2023/04/21 11:13:26;;;;;;;2.10;1.38;;;19.60;99.90;;;;;;5089337;28;20021;-82
2023/04/21 11:15:59;;;;;;;2.10;1.05;;;19.90;99.90;;;;;;5089310;28;20032;-81
2023/04/21 11:18:37;;;;;;;2.95;1.92;;;20.50;99.90;;;;;;5086545;28;20598;-82
2023/04/21 11:21:12;;;;;;;1.15;0.85;;;19.60;99.90;;;;;;5086220;28;20075;-81
2023/04/21 11:23:54;;;;;;;0.32;0.30;;;20.20;99.90;;;;;;5086304;28;20055;-82
2023/04/21 11:26:30;;;;;;;1.02;0.80;;;19.70;99.90;;;;;;5084037;28;20044;-82
2023/04/21 11:28:59;;;;;;;2.35;1.33;;;19.20;99.90;;;;;;5074398;28;20040;-82
2023/04/21 11:31:29;;;;;;;2.60;1.10;;;19.30;99.90;;;;;;5074976;28;20044;-82
2023/04/21 11:33:57;;;;;;;0.47;0.43;;;19.70;99.90;;;;;;5071248;28;20048;-83
2023/04/21 11:36:22;;;;;;;2.97;1.40;;;20.10;99.90;;;;;;5073581;28;20048;-82
2023/04/21 11:38:48;;;;;;;0.68;0.45;;;20.70;99.90;;;;;;5075403;28;20044;-82
2023/04/21 11:41:21;;;;;;;0.30;0.30;;;21.00;99.90;;;;;;5074076;28;20053;-82
2023/04/21 11:43:47;;;;;;;0.77;0.25;;;20.50;99.90;;;;;;5066843;28;20509;-82
2023/04/21 11:46:17;;;;;;;0.93;0.55;;;20.40;99.90;;;;;;5067443;28;20607;-82
2023/04/21 11:48:42;;;;;;;0.57;0.57;;;21.50;99.90;;;;;;5069009;28;20391;-82
2023/04/21 11:51:21;;;;;;;3.05;1.15;;;20.70;99.90;;;;;;5069683;28;20098;-82
2023/04/21 11:53:47;;;;;;;0.08;0.08;;;20.80;99.90;;;;;;5068843;28;20433;-82
2023/04/21 11:56:18;;;;;;;1.50;1.10;;;20.60;99.90;;;;;;5068527;28;20044;-83
2023/04/21 11:58:45;;;;;;;0.55;0.55;;;20.40;96.00;;;;;;5068682;28;20063;-81
2023/04/21 12:01:10;;;;;;;1.27;0.65;;;20.30;94.60;;;;;;5067266;28;20052;-81
2023/04/21 12:03:36;;;;;;;0.25;0.25;;;20.40;92.70;;;;;;5068625;28;20072;-82
2023/04/21 12:06:02;;;;;;;0.28;0.28;;;20.50;90.90;;;;;;5069340;28;20397;-82
2023/04/21 12:08:30;;;;;;;4.00;0.70;;;20.10;77.80;;;;;;5068341;28;20854;-82
2023/04/21 12:10:58;;;;;;;0.10;0.10;;;20.30;88.40;;;;;;5066980;28;20370;-83
2023/04/21 12:13:26;;;;;;;1.20;0.80;;;20.80;95.00;;;;;;5070284;28;20075;-82
2023/04/21 12:15:51;;;;;;;1.15;0.65;;;21.10;95.00;;;;;;5068705;28;20094;-83
2023/04/21 12:18:17;;;;;;;0.28;0.28;;;21.60;99.90;;;;;;5068860;28;20072;-81
2023/04/21 12:20:52;;;;;;;0.57;0.43;;;21.50;96.00;;;;;;5078106;28;20096;-82
2023/04/21 12:23:20;;;;;;;1.77;1.07;;;21.00;85.00;;;;;;5059575;28;20044;-82
2023/04/21 12:25:50;;;;;;;0.93;0.57;;;20.70;81.50;;;;;;5058500;28;20037;-82
2023/04/21 12:28:16;;;;;;;3.72;1.55;;;20.40;65.80;;;;;;5059175;28;20053;-81
2023/04/21 12:30:42;;;;;;;0.43;0.43;;;20.40;63.50;;;;;;5058186;28;20040;-80
2023/04/21 12:33:10;;;;;;;1.67;1.13;;;19.90;43.60;;;;;;5059418;28;20565;-82
2023/04/21 12:35:36;;;;;;;0.95;0.30;;;19.70;34.60;;;;;;5057497;28;20185;-82
2023/04/21 12:38:01;;;;;;;1.35;0.95;;;19.60;31.20;;;;;;5056703;28;20188;-81
2023/04/21 12:40:27;;;;;;;0.40;0.38;;;19.80;25.60;;;;;;5055805;28;20136;-81
2023/04/21 12:42:53;;;;;;;2.42;0.95;;;19.40;21.60;;;;;;5053494;28;20471;-82
2023/04/21 12:45:21;;;;;;;0.63;0.60;;;19.50;20.20;;;;;;5053542;28;20120;-82
2023/04/21 12:47:47;;;;;;;6.97;2.95;;;20.10;34.10;;;;;;5052954;28;20123;-81
2023/04/21 12:50:13;;;;;;;0.63;0.40;;;21.20;76.90;;;;;;5052747;28;20079;-81
2023/04/21 12:52:38;;;;;;;1.52;1.00;;;21.40;68.40;;;;;;5053443;28;20441;-81
2023/04/21 12:55:05;;;;;;;4.95;1.35;;;20.90;49.50;;;;;;5033899;28;20541;-81